sensor_id;sensor_type;location;lat;lon;timestamp;P1;durP1;ratioP1;P2;durP2;ratioP2
76731;SDS011;65656;51.130;13.658;2023-05-29T00:03:29;11.63;;;10.40;;
76731;SDS011;65656;51.130;13.658;2023-05-29T00:07:31;11.48;;;10.35;;
76731;SDS011;65656;51.130;13.658;2023-05-29T00:11:32;15.93;;;10.00;;
76731;SDS011;65656;51.130;13.658;2023-05-29T00:15:34;13.25;;;11.30;;
76731;SDS011;65656;51.130;13.658;2023-05-29T00:19:37;10.93;;;9.65;;
76731;SDS011;65656;51.130;13.658;2023-05-29T00:23:38;12.85;;;11.57;;
76731;SDS011;65656;51.130;13.658;2023-05-29T00:27:40;12.15;;;10.93;;
76731;SDS011;65656;51.130;13.658;2023-05-29T00:31:42;15.77;;;14.43;;
76731;SDS011;65656;51.130;13.658;2023-05-29T00:35:45;17.50;;;12.50;;
76731;SDS011;65656;51.130;13.658;2023-05-29T00:39:46;15.07;;;13.55;;
76731;SDS011;65656;51.130;13.658;2023-05-29T00:43:48;17.63;;;15.90;;
76731;SDS011;65656;51.130;13.658;2023-05-29T00:47:50;14.70;;;12.85;;
76731;SDS011;65656;51.130;13.658;2023-05-29T00:51:53;18.45;;;16.70;;
76731;SDS011;65656;51.130;13.658;2023-05-29T00:55:56;16.10;;;14.60;;
76731;SDS011;65656;51.130;13.658;2023-05-29T00:59:58;24.42;;;22.42;;
76731;SDS011;65656;51.130;13.658;2023-05-29T01:04:01;19.10;;;17.35;;
76731;SDS011;65656;51.130;13.658;2023-05-29T01:08:05;16.92;;;13.82;;
76731;SDS011;65656;51.130;13.658;2023-05-29T01:12:11;17.10;;;14.90;;
76731;SDS011;65656;51.130;13.658;2023-05-29T01:16:21;21.13;;;19.42;;
76731;SDS011;65656;51.130;13.658;2023-05-29T01:20:33;16.50;;;13.85;;
76731;SDS011;65656;51.130;13.658;2023-05-29T01:24:43;15.73;;;14.27;;
76731;SDS011;65656;51.130;13.658;2023-05-29T01:28:52;17.95;;;16.35;;
76731;SDS011;65656;51.130;13.658;2023-05-29T01:32:57;17.35;;;15.65;;
76731;SDS011;65656;51.130;13.658;2023-05-29T01:37:00;16.65;;;14.93;;
76731;SDS011;65656;51.130;13.658;2023-05-29T01:41:01;17.65;;;15.93;;
76731;SDS011;65656;51.130;13.658;2023-05-29T01:45:05;19.00;;;17.17;;
76731;SDS011;65656;51.130;13.658;2023-05-29T01:49:08;20.00;;;13.13;;
76731;SDS011;65656;51.130;13.658;2023-05-29T01:53:10;17.10;;;15.35;;
76731;SDS011;65656;51.130;13.658;2023-05-29T01:57:12;16.10;;;14.13;;
76731;SDS011;65656;51.130;13.658;2023-05-29T02:01:15;20.02;;;18.25;;
76731;SDS011;65656;51.130;13.658;2023-05-29T02:05:17;18.63;;;14.43;;
76731;SDS011;65656;51.130;13.658;2023-05-29T02:09:19;17.38;;;15.88;;
76731;SDS011;65656;51.130;13.658;2023-05-29T02:13:21;15.60;;;13.98;;
76731;SDS011;65656;51.130;13.658;2023-05-29T02:17:23;16.95;;;14.93;;
76731;SDS011;65656;51.130;13.658;2023-05-29T02:21:25;15.90;;;14.40;;
76731;SDS011;65656;51.130;13.658;2023-05-29T02:25:27;14.38;;;13.13;;
76731;SDS011;65656;51.130;13.658;2023-05-29T02:29:28;14.70;;;13.13;;
76731;SDS011;65656;51.130;13.658;2023-05-29T02:33:31;15.45;;;14.15;;
76731;SDS011;65656;51.130;13.658;2023-05-29T02:37:33;16.60;;;14.98;;
76731;SDS011;65656;51.130;13.658;2023-05-29T02:41:34;15.30;;;13.90;;
76731;SDS011;65656;51.130;13.658;2023-05-29T02:45:36;16.17;;;14.60;;
76731;SDS011;65656;51.130;13.658;2023-05-29T02:49:38;15.77;;;14.23;;
76731;SDS011;65656;51.130;13.658;2023-05-29T02:53:40;16.02;;;14.52;;
76731;SDS011;65656;51.130;13.658;2023-05-29T02:57:42;16.83;;;13.43;;
76731;SDS011;65656;51.130;13.658;2023-05-29T03:01:43;15.63;;;14.13;;
76731;SDS011;65656;51.130;13.658;2023-05-29T03:05:46;13.68;;;11.60;;
76731;SDS011;65656;51.130;13.658;2023-05-29T03:09:48;16.58;;;14.85;;
76731;SDS011;65656;51.130;13.658;2023-05-29T03:13:49;14.60;;;13.10;;
76731;SDS011;65656;51.130;13.658;2023-05-29T03:17:51;17.55;;;16.05;;
76731;SDS011;65656;51.130;13.658;2023-05-29T03:21:54;14.35;;;12.95;;
76731;SDS011;65656;51.130;13.658;2023-05-29T03:25:55;15.48;;;14.00;;
76731;SDS011;65656;51.130;13.658;2023-05-29T03:29:57;14.65;;;13.35;;
76731;SDS011;65656;51.130;13.658;2023-05-29T03:34:00;24.98;;;23.08;;
76731;SDS011;65656;51.130;13.658;2023-05-29T03:38:03;18.08;;;14.65;;
76731;SDS011;65656;51.130;13.658;2023-05-29T03:42:04;19.85;;;18.20;;
76731;SDS011;65656;51.130;13.658;2023-05-29T03:46:06;18.50;;;16.85;;
76731;SDS011;65656;51.130;13.658;2023-05-29T03:50:08;15.13;;;13.73;;
76731;SDS011;65656;51.130;13.658;2023-05-29T03:54:11;17.00;;;15.40;;
76731;SDS011;65656;51.130;13.658;2023-05-29T03:58:13;17.42;;;15.88;;
76731;SDS011;65656;51.130;13.658;2023-05-29T04:02:15;15.50;;;13.90;;
76731;SDS011;65656;51.130;13.658;2023-05-29T04:06:20;16.17;;;14.77;;
76731;SDS011;65656;51.130;13.658;2023-05-29T04:10:23;22.50;;;20.77;;
76731;SDS011;65656;51.130;13.658;2023-05-29T04:14:24;14.10;;;12.68;;
76731;SDS011;65656;51.130;13.658;2023-05-29T04:18:26;14.00;;;12.60;;
76731;SDS011;65656;51.130;13.658;2023-05-29T04:22:27;14.13;;;12.65;;
76731;SDS011;65656;51.130;13.658;2023-05-29T04:26:30;13.40;;;11.65;;
76731;SDS011;65656;51.130;13.658;2023-05-29T04:30:32;12.07;;;10.52;;
76731;SDS011;65656;51.130;13.658;2023-05-29T04:34:33;12.77;;;11.30;;
76731;SDS011;65656;51.130;13.658;2023-05-29T04:38:35;18.40;;;12.85;;
76731;SDS011;65656;51.130;13.658;2023-05-29T04:42:38;14.88;;;11.70;;
76731;SDS011;65656;51.130;13.658;2023-05-29T04:46:40;13.75;;;12.45;;
76731;SDS011;65656;51.130;13.658;2023-05-29T04:50:41;12.90;;;11.65;;
76731;SDS011;65656;51.130;13.658;2023-05-29T04:54:43;11.73;;;10.02;;
76731;SDS011;65656;51.130;13.658;2023-05-29T04:58:46;12.52;;;11.25;;
76731;SDS011;65656;51.130;13.658;2023-05-29T05:02:48;15.75;;;10.45;;
76731;SDS011;65656;51.130;13.658;2023-05-29T05:06:50;13.10;;;11.90;;
76731;SDS011;65656;51.130;13.658;2023-05-29T05:10:52;23.45;;;21.73;;
76731;SDS011;65656;51.130;13.658;2023-05-29T05:14:55;12.23;;;10.80;;
76731;SDS011;65656;51.130;13.658;2023-05-29T05:18:57;12.27;;;10.60;;
76731;SDS011;65656;51.130;13.658;2023-05-29T05:22:58;12.73;;;11.52;;
76731;SDS011;65656;51.130;13.658;2023-05-29T05:27:00;12.95;;;11.80;;
76731;SDS011;65656;51.130;13.658;2023-05-29T05:31:03;11.35;;;9.95;;
76731;SDS011;65656;51.130;13.658;2023-05-29T05:35:04;13.82;;;11.13;;
76731;SDS011;65656;51.130;13.658;2023-05-29T05:39:06;14.85;;;11.43;;
76731;SDS011;65656;51.130;13.658;2023-05-29T05:43:08;11.15;;;9.43;;
76731;SDS011;65656;51.130;13.658;2023-05-29T05:47:11;12.52;;;9.88;;
76731;SDS011;65656;51.130;13.658;2023-05-29T05:51:12;12.05;;;11.05;;
76731;SDS011;65656;51.130;13.658;2023-05-29T05:55:14;11.43;;;10.23;;
76731;SDS011;65656;51.130;13.658;2023-05-29T05:59:16;10.85;;;9.73;;
76731;SDS011;65656;51.130;13.658;2023-05-29T06:03:19;15.30;;;12.77;;
76731;SDS011;65656;51.130;13.658;2023-05-29T06:07:20;12.65;;;11.43;;
76731;SDS011;65656;51.130;13.658;2023-05-29T06:11:22;12.15;;;11.02;;
76731;SDS011;65656;51.130;13.658;2023-05-29T06:15:23;12.43;;;11.18;;
76731;SDS011;65656;51.130;13.658;2023-05-29T06:19:26;13.40;;;12.18;;
76731;SDS011;65656;51.130;13.658;2023-05-29T06:23:28;11.75;;;10.07;;
76731;SDS011;65656;51.130;13.658;2023-05-29T06:27:29;11.77;;;10.32;;
76731;SDS011;65656;51.130;13.658;2023-05-29T06:31:31;11.25;;;10.10;;
76731;SDS011;65656;51.130;13.658;2023-05-29T06:35:34;8.60;;;7.75;;
76731;SDS011;65656;51.130;13.658;2023-05-29T06:39:36;7.90;;;7.00;;
76731;SDS011;65656;51.130;13.658;2023-05-29T06:43:37;9.60;;;8.60;;
76731;SDS011;65656;51.130;13.658;2023-05-29T06:47:39;8.98;;;8.07;;
76731;SDS011;65656;51.130;13.658;2023-05-29T06:51:42;10.68;;;9.18;;
76731;SDS011;65656;51.130;13.658;2023-05-29T06:55:43;10.15;;;7.32;;
76731;SDS011;65656;51.130;13.658;2023-05-29T06:59:45;9.00;;;7.85;;
76731;SDS011;65656;51.130;13.658;2023-05-29T07:03:51;8.48;;;7.63;;
76731;SDS011;65656;51.130;13.658;2023-05-29T07:07:54;9.38;;;8.13;;
76731;SDS011;65656;51.130;13.658;2023-05-29T07:11:56;7.70;;;6.80;;
76731;SDS011;65656;51.130;13.658;2023-05-29T07:15:57;8.55;;;5.68;;
76731;SDS011;65656;51.130;13.658;2023-05-29T07:20:06;8.40;;;4.82;;
76731;SDS011;65656;51.130;13.658;2023-05-29T07:24:10;7.78;;;5.45;;
76731;SDS011;65656;51.130;13.658;2023-05-29T07:28:11;10.50;;;6.93;;
76731;SDS011;65656;51.130;13.658;2023-05-29T07:36:28;6.97;;;4.68;;
76731;SDS011;65656;51.130;13.658;2023-05-29T07:40:32;6.60;;;4.28;;
76731;SDS011;65656;51.130;13.658;2023-05-29T07:44:33;6.85;;;5.05;;
76731;SDS011;65656;51.130;13.658;2023-05-29T07:48:35;7.05;;;6.13;;
76731;SDS011;65656;51.130;13.658;2023-05-29T07:52:37;6.05;;;4.57;;
76731;SDS011;65656;51.130;13.658;2023-05-29T07:56:40;8.43;;;7.30;;
76731;SDS011;65656;51.130;13.658;2023-05-29T08:00:43;5.90;;;4.05;;
76731;SDS011;65656;51.130;13.658;2023-05-29T08:04:45;8.48;;;4.80;;
76731;SDS011;65656;51.130;13.658;2023-05-29T08:08:47;9.18;;;5.55;;
76731;SDS011;65656;51.130;13.658;2023-05-29T08:12:50;6.95;;;5.13;;
76731;SDS011;65656;51.130;13.658;2023-05-29T08:16:51;6.25;;;4.28;;
76731;SDS011;65656;51.130;13.658;2023-05-29T08:20:53;4.95;;;3.47;;
76731;SDS011;65656;51.130;13.658;2023-05-29T08:24:55;7.90;;;6.60;;
76731;SDS011;65656;51.130;13.658;2023-05-29T08:28:58;8.20;;;4.43;;
76731;SDS011;65656;51.130;13.658;2023-05-29T08:33:00;7.47;;;5.38;;
76731;SDS011;65656;51.130;13.658;2023-05-29T08:37:02;5.82;;;4.65;;
76731;SDS011;65656;51.130;13.658;2023-05-29T08:41:04;5.80;;;4.10;;
76731;SDS011;65656;51.130;13.658;2023-05-29T08:45:08;8.70;;;5.70;;
76731;SDS011;65656;51.130;13.658;2023-05-29T08:49:14;8.65;;;3.90;;
76731;SDS011;65656;51.130;13.658;2023-05-29T08:53:21;7.13;;;5.95;;
76731;SDS011;65656;51.130;13.658;2023-05-29T08:57:23;5.38;;;3.72;;
76731;SDS011;65656;51.130;13.658;2023-05-29T09:01:27;5.63;;;3.50;;
76731;SDS011;65656;51.130;13.658;2023-05-29T09:05:29;7.68;;;5.97;;
76731;SDS011;65656;51.130;13.658;2023-05-29T09:09:31;6.03;;;3.20;;
76731;SDS011;65656;51.130;13.658;2023-05-29T09:13:33;6.50;;;3.28;;
76731;SDS011;65656;51.130;13.658;2023-05-29T09:17:35;5.82;;;3.78;;
76731;SDS011;65656;51.130;13.658;2023-05-29T09:21:37;6.90;;;5.07;;
76731;SDS011;65656;51.130;13.658;2023-05-29T09:25:40;9.32;;;8.63;;
76731;SDS011;65656;51.130;13.658;2023-05-29T09:29:43;5.30;;;4.80;;
76731;SDS011;65656;51.130;13.658;2023-05-29T09:33:49;6.43;;;5.35;;
76731;SDS011;65656;51.130;13.658;2023-05-29T09:37:52;11.07;;;4.07;;
76731;SDS011;65656;51.130;13.658;2023-05-29T09:41:53;5.82;;;4.68;;
76731;SDS011;65656;51.130;13.658;2023-05-29T09:45:55;5.03;;;4.22;;
76731;SDS011;65656;51.130;13.658;2023-05-29T09:50:00;5.65;;;4.53;;
76731;SDS011;65656;51.130;13.658;2023-05-29T09:54:12;6.28;;;4.57;;
76731;SDS011;65656;51.130;13.658;2023-05-29T09:58:14;7.72;;;4.97;;
76731;SDS011;65656;51.130;13.658;2023-05-29T10:02:16;6.63;;;3.40;;
76731;SDS011;65656;51.130;13.658;2023-05-29T10:06:20;5.50;;;3.67;;
76731;SDS011;65656;51.130;13.658;2023-05-29T10:10:23;5.90;;;4.80;;
76731;SDS011;65656;51.130;13.658;2023-05-29T10:14:26;9.07;;;4.93;;
76731;SDS011;65656;51.130;13.658;2023-05-29T10:18:32;5.22;;;3.38;;
76731;SDS011;65656;51.130;13.658;2023-05-29T10:22:39;9.40;;;7.10;;
76731;SDS011;65656;51.130;13.658;2023-05-29T10:26:43;7.82;;;3.97;;
76731;SDS011;65656;51.130;13.658;2023-05-29T10:30:50;6.10;;;3.30;;
76731;SDS011;65656;51.130;13.658;2023-05-29T10:34:56;6.35;;;4.45;;
76731;SDS011;65656;51.130;13.658;2023-05-29T10:39:07;5.65;;;3.88;;
76731;SDS011;65656;51.130;13.658;2023-05-29T10:43:13;9.00;;;7.25;;
76731;SDS011;65656;51.130;13.658;2023-05-29T10:47:31;4.55;;;2.88;;
76731;SDS011;65656;51.130;13.658;2023-05-29T10:51:33;4.43;;;2.78;;
76731;SDS011;65656;51.130;13.658;2023-05-29T10:55:42;5.50;;;4.38;;
76731;SDS011;65656;51.130;13.658;2023-05-29T10:59:45;8.90;;;7.93;;
76731;SDS011;65656;51.130;13.658;2023-05-29T11:03:47;8.60;;;3.72;;
76731;SDS011;65656;51.130;13.658;2023-05-29T11:07:55;4.88;;;3.03;;
76731;SDS011;65656;51.130;13.658;2023-05-29T11:16:35;7.40;;;6.70;;
76731;SDS011;65656;51.130;13.658;2023-05-29T11:20:42;5.80;;;4.28;;
76731;SDS011;65656;51.130;13.658;2023-05-29T11:24:51;6.95;;;2.88;;
76731;SDS011;65656;51.130;13.658;2023-05-29T11:28:58;4.43;;;3.20;;
76731;SDS011;65656;51.130;13.658;2023-05-29T11:33:01;7.00;;;2.92;;
76731;SDS011;65656;51.130;13.658;2023-05-29T11:37:06;5.60;;;3.22;;
76731;SDS011;65656;51.130;13.658;2023-05-29T11:41:07;5.07;;;3.92;;
76731;SDS011;65656;51.130;13.658;2023-05-29T11:45:12;7.85;;;7.15;;
76731;SDS011;65656;51.130;13.658;2023-05-29T11:49:26;5.35;;;4.40;;
76731;SDS011;65656;51.130;13.658;2023-05-29T11:53:29;6.72;;;3.30;;
76731;SDS011;65656;51.130;13.658;2023-05-29T11:57:30;5.53;;;2.60;;
76731;SDS011;65656;51.130;13.658;2023-05-29T12:01:35;4.07;;;2.80;;
76731;SDS011;65656;51.130;13.658;2023-05-29T12:05:43;6.75;;;3.45;;
76731;SDS011;65656;51.130;13.658;2023-05-29T12:09:46;5.28;;;3.08;;
76731;SDS011;65656;51.130;13.658;2023-05-29T12:13:54;5.47;;;3.15;;
76731;SDS011;65656;51.130;13.658;2023-05-29T12:17:58;6.25;;;2.83;;
76731;SDS011;65656;51.130;13.658;2023-05-29T12:22:00;6.97;;;6.32;;
76731;SDS011;65656;51.130;13.658;2023-05-29T12:26:02;5.18;;;4.68;;
76731;SDS011;65656;51.130;13.658;2023-05-29T12:30:04;6.00;;;2.92;;
76731;SDS011;65656;51.130;13.658;2023-05-29T12:34:08;5.60;;;4.10;;
76731;SDS011;65656;51.130;13.658;2023-05-29T12:38:11;5.72;;;3.50;;
76731;SDS011;65656;51.130;13.658;2023-05-29T12:42:13;4.72;;;3.10;;
76731;SDS011;65656;51.130;13.658;2023-05-29T12:46:16;4.82;;;3.17;;
76731;SDS011;65656;51.130;13.658;2023-05-29T12:50:23;4.47;;;3.33;;
76731;SDS011;65656;51.130;13.658;2023-05-29T12:54:25;4.45;;;2.80;;
76731;SDS011;65656;51.130;13.658;2023-05-29T12:58:27;7.53;;;3.88;;
76731;SDS011;65656;51.130;13.658;2023-05-29T13:02:29;5.35;;;4.85;;
76731;SDS011;65656;51.130;13.658;2023-05-29T13:06:32;5.13;;;3.38;;
76731;SDS011;65656;51.130;13.658;2023-05-29T13:10:33;5.07;;;3.05;;
76731;SDS011;65656;51.130;13.658;2023-05-29T13:14:35;6.22;;;4.00;;
76731;SDS011;65656;51.130;13.658;2023-05-29T13:18:37;4.65;;;2.67;;
76731;SDS011;65656;51.130;13.658;2023-05-29T13:22:40;6.00;;;4.38;;
76731;SDS011;65656;51.130;13.658;2023-05-29T13:26:43;6.45;;;3.83;;
76731;SDS011;65656;51.130;13.658;2023-05-29T13:30:45;5.70;;;2.72;;
76731;SDS011;65656;51.130;13.658;2023-05-29T13:34:46;4.93;;;2.75;;
76731;SDS011;65656;51.130;13.658;2023-05-29T13:38:49;7.40;;;5.85;;
76731;SDS011;65656;51.130;13.658;2023-05-29T13:42:51;4.70;;;2.85;;
76731;SDS011;65656;51.130;13.658;2023-05-29T13:46:52;5.15;;;3.33;;
76731;SDS011;65656;51.130;13.658;2023-05-29T13:50:54;6.80;;;5.35;;
76731;SDS011;65656;51.130;13.658;2023-05-29T13:54:57;11.13;;;10.30;;
76731;SDS011;65656;51.130;13.658;2023-05-29T13:58:59;6.90;;;6.20;;
76731;SDS011;65656;51.130;13.658;2023-05-29T14:03:00;5.97;;;4.95;;
76731;SDS011;65656;51.130;13.658;2023-05-29T14:07:02;7.72;;;7.07;;
76731;SDS011;65656;51.130;13.658;2023-05-29T14:11:05;6.05;;;4.07;;
76731;SDS011;65656;51.130;13.658;2023-05-29T14:15:08;6.40;;;4.25;;
76731;SDS011;65656;51.130;13.658;2023-05-29T14:19:11;3.97;;;2.97;;
76731;SDS011;65656;51.130;13.658;2023-05-29T14:23:13;4.68;;;2.40;;
76731;SDS011;65656;51.130;13.658;2023-05-29T14:27:16;5.25;;;3.50;;
76731;SDS011;65656;51.130;13.658;2023-05-29T14:31:18;4.78;;;2.55;;
76731;SDS011;65656;51.130;13.658;2023-05-29T14:35:20;6.55;;;4.10;;
76731;SDS011;65656;51.130;13.658;2023-05-29T14:39:21;7.50;;;6.80;;
76731;SDS011;65656;51.130;13.658;2023-05-29T14:43:24;5.63;;;3.30;;
76731;SDS011;65656;51.130;13.658;2023-05-29T14:47:26;5.80;;;3.30;;
76731;SDS011;65656;51.130;13.658;2023-05-29T14:51:27;6.50;;;4.57;;
76731;SDS011;65656;51.130;13.658;2023-05-29T14:55:29;4.50;;;3.03;;
76731;SDS011;65656;51.130;13.658;2023-05-29T14:59:32;5.95;;;3.53;;
76731;SDS011;65656;51.130;13.658;2023-05-29T15:03:34;6.40;;;4.55;;
76731;SDS011;65656;51.130;13.658;2023-05-29T15:07:35;5.43;;;3.22;;
76731;SDS011;65656;51.130;13.658;2023-05-29T15:11:37;7.10;;;2.97;;
76731;SDS011;65656;51.130;13.658;2023-05-29T15:15:40;5.80;;;4.72;;
76731;SDS011;65656;51.130;13.658;2023-05-29T15:19:47;5.88;;;3.03;;
76731;SDS011;65656;51.130;13.658;2023-05-29T15:23:48;4.88;;;3.55;;
76731;SDS011;65656;51.130;13.658;2023-05-29T15:27:50;4.75;;;3.17;;
76731;SDS011;65656;51.130;13.658;2023-05-29T15:31:53;5.40;;;3.63;;
76731;SDS011;65656;51.130;13.658;2023-05-29T15:35:54;4.85;;;3.03;;
76731;SDS011;65656;51.130;13.658;2023-05-29T15:39:56;6.25;;;4.10;;
76731;SDS011;65656;51.130;13.658;2023-05-29T15:43:58;4.57;;;3.08;;
76731;SDS011;65656;51.130;13.658;2023-05-29T15:48:01;4.90;;;3.53;;
76731;SDS011;65656;51.130;13.658;2023-05-29T15:52:03;7.25;;;3.55;;
76731;SDS011;65656;51.130;13.658;2023-05-29T15:56:04;6.35;;;3.20;;
76731;SDS011;65656;51.130;13.658;2023-05-29T16:00:06;7.28;;;3.83;;
76731;SDS011;65656;51.130;13.658;2023-05-29T16:04:11;6.13;;;5.50;;
76731;SDS011;65656;51.130;13.658;2023-05-29T16:08:12;4.97;;;2.80;;
76731;SDS011;65656;51.130;13.658;2023-05-29T16:12:14;5.10;;;2.73;;
76731;SDS011;65656;51.130;13.658;2023-05-29T16:16:16;6.45;;;4.25;;
76731;SDS011;65656;51.130;13.658;2023-05-29T16:20:19;7.22;;;4.13;;
76731;SDS011;65656;51.130;13.658;2023-05-29T16:24:21;5.93;;;3.20;;
76731;SDS011;65656;51.130;13.658;2023-05-29T16:28:22;6.55;;;3.97;;
76731;SDS011;65656;51.130;13.658;2023-05-29T16:32:24;6.65;;;2.95;;
76731;SDS011;65656;51.130;13.658;2023-05-29T16:36:27;4.05;;;3.00;;
76731;SDS011;65656;51.130;13.658;2023-05-29T16:40:29;6.47;;;3.17;;
76731;SDS011;65656;51.130;13.658;2023-05-29T16:44:30;4.80;;;3.00;;
76731;SDS011;65656;51.130;13.658;2023-05-29T16:48:32;7.15;;;3.83;;
76731;SDS011;65656;51.130;13.658;2023-05-29T16:52:35;6.70;;;4.57;;
76731;SDS011;65656;51.130;13.658;2023-05-29T16:56:37;6.22;;;3.80;;
76731;SDS011;65656;51.130;13.658;2023-05-29T17:00:38;6.07;;;3.35;;
76731;SDS011;65656;51.130;13.658;2023-05-29T17:04:40;4.35;;;2.40;;
76731;SDS011;65656;51.130;13.658;2023-05-29T17:08:43;5.03;;;3.72;;
76731;SDS011;65656;51.130;13.658;2023-05-29T17:12:44;6.75;;;3.95;;
76731;SDS011;65656;51.130;13.658;2023-05-29T17:16:46;5.68;;;5.18;;
76731;SDS011;65656;51.130;13.658;2023-05-29T17:20:48;5.68;;;3.10;;
76731;SDS011;65656;51.130;13.658;2023-05-29T17:24:51;6.68;;;3.63;;
76731;SDS011;65656;51.130;13.658;2023-05-29T17:28:52;4.80;;;3.70;;
76731;SDS011;65656;51.130;13.658;2023-05-29T17:32:54;5.72;;;3.03;;
76731;SDS011;65656;51.130;13.658;2023-05-29T17:36:56;4.28;;;3.03;;
76731;SDS011;65656;51.130;13.658;2023-05-29T17:40:59;6.93;;;3.65;;
76731;SDS011;65656;51.130;13.658;2023-05-29T17:45:00;4.97;;;3.47;;
76731;SDS011;65656;51.130;13.658;2023-05-29T17:49:02;6.72;;;4.55;;
76731;SDS011;65656;51.130;13.658;2023-05-29T17:53:03;5.10;;;3.15;;
76731;SDS011;65656;51.130;13.658;2023-05-29T17:57:06;5.35;;;3.00;;
76731;SDS011;65656;51.130;13.658;2023-05-29T18:01:08;6.65;;;3.38;;
76731;SDS011;65656;51.130;13.658;2023-05-29T18:05:10;5.55;;;4.05;;
76731;SDS011;65656;51.130;13.658;2023-05-29T18:09:12;6.68;;;4.38;;
76731;SDS011;65656;51.130;13.658;2023-05-29T18:13:15;9.95;;;9.05;;
76731;SDS011;65656;51.130;13.658;2023-05-29T18:17:17;12.95;;;11.20;;
76731;SDS011;65656;51.130;13.658;2023-05-29T18:21:19;17.58;;;14.25;;
76731;SDS011;65656;51.130;13.658;2023-05-29T18:25:20;10.70;;;9.25;;
76731;SDS011;65656;51.130;13.658;2023-05-29T18:29:23;4.60;;;3.63;;
76731;SDS011;65656;51.130;13.658;2023-05-29T18:33:25;9.45;;;7.40;;
76731;SDS011;65656;51.130;13.658;2023-05-29T18:37:26;8.57;;;6.82;;
76731;SDS011;65656;51.130;13.658;2023-05-29T18:41:28;7.47;;;4.22;;
76731;SDS011;65656;51.130;13.658;2023-05-29T18:45:31;5.45;;;2.63;;
76731;SDS011;65656;51.130;13.658;2023-05-29T18:49:32;6.88;;;5.72;;
76731;SDS011;65656;51.130;13.658;2023-05-29T18:53:34;4.78;;;3.22;;
76731;SDS011;65656;51.130;13.658;2023-05-29T18:57:36;4.88;;;3.70;;
76731;SDS011;65656;51.130;13.658;2023-05-29T19:01:39;9.73;;;7.00;;
76731;SDS011;65656;51.130;13.658;2023-05-29T19:05:41;7.00;;;5.88;;
76731;SDS011;65656;51.130;13.658;2023-05-29T19:09:43;5.18;;;3.80;;
76731;SDS011;65656;51.130;13.658;2023-05-29T19:13:44;6.30;;;4.75;;
76731;SDS011;65656;51.130;13.658;2023-05-29T19:17:47;5.05;;;4.47;;
76731;SDS011;65656;51.130;13.658;2023-05-29T19:21:49;9.43;;;4.25;;
76731;SDS011;65656;51.130;13.658;2023-05-29T19:25:50;5.78;;;3.78;;
76731;SDS011;65656;51.130;13.658;2023-05-29T19:29:52;7.35;;;3.35;;
76731;SDS011;65656;51.130;13.658;2023-05-29T19:33:55;5.75;;;3.55;;
76731;SDS011;65656;51.130;13.658;2023-05-29T19:37:57;4.57;;;4.10;;
76731;SDS011;65656;51.130;13.658;2023-05-29T19:41:59;6.15;;;3.97;;
76731;SDS011;65656;51.130;13.658;2023-05-29T19:46:00;6.10;;;3.92;;
76731;SDS011;65656;51.130;13.658;2023-05-29T19:50:09;6.65;;;5.25;;
76731;SDS011;65656;51.130;13.658;2023-05-29T19:54:11;5.40;;;4.03;;
76731;SDS011;65656;51.130;13.658;2023-05-29T19:58:13;6.20;;;5.35;;
76731;SDS011;65656;51.130;13.658;2023-05-29T20:02:14;5.30;;;4.80;;
76731;SDS011;65656;51.130;13.658;2023-05-29T20:06:17;5.65;;;4.60;;
76731;SDS011;65656;51.130;13.658;2023-05-29T20:10:19;10.48;;;3.83;;
76731;SDS011;65656;51.130;13.658;2023-05-29T20:14:20;6.47;;;4.50;;
76731;SDS011;65656;51.130;13.658;2023-05-29T20:18:22;5.20;;;3.80;;
76731;SDS011;65656;51.130;13.658;2023-05-29T20:22:25;5.55;;;3.25;;
76731;SDS011;65656;51.130;13.658;2023-05-29T20:26:26;5.43;;;4.15;;
76731;SDS011;65656;51.130;13.658;2023-05-29T20:30:28;7.00;;;3.35;;
76731;SDS011;65656;51.130;13.658;2023-05-29T20:34:30;6.07;;;4.35;;
76731;SDS011;65656;51.130;13.658;2023-05-29T20:38:33;5.90;;;3.58;;
76731;SDS011;65656;51.130;13.658;2023-05-29T20:42:34;5.10;;;4.40;;
76731;SDS011;65656;51.130;13.658;2023-05-29T20:46:36;5.70;;;5.20;;
76731;SDS011;65656;51.130;13.658;2023-05-29T20:50:37;7.47;;;5.13;;
76731;SDS011;65656;51.130;13.658;2023-05-29T20:54:40;7.82;;;4.65;;
76731;SDS011;65656;51.130;13.658;2023-05-29T20:58:42;7.55;;;4.47;;
76731;SDS011;65656;51.130;13.658;2023-05-29T21:02:44;5.57;;;4.43;;
76731;SDS011;65656;51.130;13.658;2023-05-29T21:06:45;6.32;;;4.13;;
76731;SDS011;65656;51.130;13.658;2023-05-29T21:10:48;6.68;;;5.80;;
76731;SDS011;65656;51.130;13.658;2023-05-29T21:14:50;5.28;;;3.25;;
76731;SDS011;65656;51.130;13.658;2023-05-29T21:18:51;6.38;;;5.22;;
76731;SDS011;65656;51.130;13.658;2023-05-29T21:22:53;6.60;;;2.72;;
76731;SDS011;65656;51.130;13.658;2023-05-29T21:26:56;7.25;;;3.40;;
76731;SDS011;65656;51.130;13.658;2023-05-29T21:30:57;9.50;;;8.82;;
76731;SDS011;65656;51.130;13.658;2023-05-29T21:34:59;5.68;;;3.58;;
76731;SDS011;65656;51.130;13.658;2023-05-29T21:39:01;6.07;;;3.72;;
76731;SDS011;65656;51.130;13.658;2023-05-29T21:43:04;8.38;;;3.95;;
76731;SDS011;65656;51.130;13.658;2023-05-29T21:47:06;4.88;;;3.45;;
76731;SDS011;65656;51.130;13.658;2023-05-29T21:51:07;4.72;;;3.83;;
76731;SDS011;65656;51.130;13.658;2023-05-29T21:55:09;4.55;;;2.72;;
76731;SDS011;65656;51.130;13.658;2023-05-29T21:59:12;6.35;;;3.15;;
76731;SDS011;65656;51.130;13.658;2023-05-29T22:03:14;4.32;;;3.20;;
76731;SDS011;65656;51.130;13.658;2023-05-29T22:07:15;6.82;;;3.42;;
76731;SDS011;65656;51.130;13.658;2023-05-29T22:11:17;9.13;;;8.43;;
76731;SDS011;65656;51.130;13.658;2023-05-29T22:15:20;5.55;;;4.45;;
76731;SDS011;65656;51.130;13.658;2023-05-29T22:19:21;5.03;;;4.53;;
76731;SDS011;65656;51.130;13.658;2023-05-29T22:23:23;7.35;;;4.32;;
76731;SDS011;65656;51.130;13.658;2023-05-29T22:27:25;5.53;;;3.03;;
76731;SDS011;65656;51.130;13.658;2023-05-29T22:31:28;6.32;;;4.85;;
76731;SDS011;65656;51.130;13.658;2023-05-29T22:35:30;3.88;;;3.47;;
76731;SDS011;65656;51.130;13.658;2023-05-29T22:39:31;5.05;;;4.60;;
76731;SDS011;65656;51.130;13.658;2023-05-29T22:43:33;4.88;;;3.60;;
76731;SDS011;65656;51.130;13.658;2023-05-29T22:47:36;7.43;;;3.22;;
76731;SDS011;65656;51.130;13.658;2023-05-29T22:51:38;4.55;;;4.10;;
76731;SDS011;65656;51.130;13.658;2023-05-29T22:55:39;6.78;;;4.07;;
76731;SDS011;65656;51.130;13.658;2023-05-29T22:59:41;6.22;;;4.78;;
76731;SDS011;65656;51.130;13.658;2023-05-29T23:03:44;7.32;;;4.75;;
76731;SDS011;65656;51.130;13.658;2023-05-29T23:07:45;4.32;;;3.22;;
76731;SDS011;65656;51.130;13.658;2023-05-29T23:11:47;6.53;;;4.13;;
76731;SDS011;65656;51.130;13.658;2023-05-29T23:15:49;10.85;;;9.82;;
76731;SDS011;65656;51.130;13.658;2023-05-29T23:19:52;7.38;;;4.35;;
76731;SDS011;65656;51.130;13.658;2023-05-29T23:23:53;6.47;;;4.68;;
76731;SDS011;65656;51.130;13.658;2023-05-29T23:27:55;4.65;;;3.55;;
76731;SDS011;65656;51.130;13.658;2023-05-29T23:31:56;6.15;;;4.22;;
76731;SDS011;65656;51.130;13.658;2023-05-29T23:35:59;7.00;;;3.63;;
76731;SDS011;65656;51.130;13.658;2023-05-29T23:40:01;5.82;;;4.50;;
76731;SDS011;65656;51.130;13.658;2023-05-29T23:44:02;6.13;;;4.07;;
76731;SDS011;65656;51.130;13.658;2023-05-29T23:48:04;6.03;;;5.20;;
76731;SDS011;65656;51.130;13.658;2023-05-29T23:52:07;9.52;;;8.65;;
76731;SDS011;65656;51.130;13.658;2023-05-29T23:56:09;8.32;;;4.38;;
